Orbital elements of COSMOS 970 DEB
| Launched | 20 December 1977 |
| Flight ended | – |
| Launch site | Tyuratam Missile and Space Center, Kazakhstan (Also known as Baikonur Cosmodrome) |
| Owner | Commonwealth of Independent States (former USSR) |
| NORAD ID | 14511 |
| Date fetched |
Epoch osculation |
Inc. [°] |
Ecc. | RA asc node [hr] |
Arg Peri. [°] |
Mean anom [°] |
Mean motion [rev/day] |
Abs. mag |
| Date fetched |
Epoch osculation |
Inc. [°] |
Ecc. | RA asc node [hr] |
Arg Peri. [°] |
Mean anom [°] |
Mean motion [rev/day] |
Abs. mag |
| 2026 May 03 17:57 | 2026 Apr 30 12:44:12 | 64.6794 | 0.01416 | 14.7597 | 157.0834 | 224.2410 | 13.22405 | – |
| 2026 May 02 17:57 | 2026 Apr 30 12:44:12 | 64.6794 | 0.01416 | 14.7597 | 157.0834 | 224.2410 | 13.22405 | – |
| 2026 May 01 17:56 | 2026 Apr 30 12:44:12 | 64.6794 | 0.01416 | 14.7597 | 157.0834 | 224.2410 | 13.22405 | – |
| 2026 Apr 30 17:56 | 2026 Apr 30 12:44:12 | 64.6794 | 0.01416 | 14.7597 | 157.0834 | 224.2410 | 13.22405 | – |
| 2026 Apr 29 17:57 | 2026 Apr 22 08:46:32 | 64.6793 | 0.01422 | 16.0428 | 159.0114 | 224.2410 | 13.22405 | – |
| 2026 Apr 28 17:56 | 2026 Apr 22 08:46:32 | 64.6793 | 0.01422 | 16.0428 | 159.0114 | 224.2410 | 13.22405 | – |
| 2026 Apr 27 17:58 | 2026 Apr 22 08:46:32 | 64.6793 | 0.01422 | 16.0428 | 159.0114 | 224.2410 | 13.22405 | – |
| 2026 Apr 26 17:58 | 2026 Apr 22 08:46:32 | 64.6793 | 0.01422 | 16.0428 | 159.0114 | 224.2410 | 13.22405 | – |
| 2026 Apr 25 17:58 | 2026 Apr 22 08:46:32 | 64.6793 | 0.01422 | 16.0428 | 159.0114 | 224.2410 | 13.22405 | – |
| 2026 Apr 24 17:59 | 2026 Apr 22 08:46:32 | 64.6793 | 0.01422 | 16.0428 | 159.0114 | 224.2410 | 13.22405 | – |
| 2026 Apr 23 17:57 | 2026 Apr 18 15:47:17 | 64.6789 | 0.01424 | 16.6255 | 159.8927 | 224.2410 | 13.22405 | – |
| 2026 Apr 22 17:57 | 2026 Apr 18 15:47:17 | 64.6789 | 0.01424 | 16.6255 | 159.8927 | 224.2410 | 13.22405 | – |
| 2026 Apr 21 17:57 | 2026 Apr 18 15:47:17 | 64.6789 | 0.01424 | 16.6255 | 159.8927 | 224.2410 | 13.22405 | – |
| 2026 Apr 20 17:57 | 2026 Apr 18 15:47:17 | 64.6789 | 0.01424 | 16.6255 | 159.8927 | 224.2410 | 13.22405 | – |
| 2026 Apr 19 17:58 | 2026 Apr 18 15:47:17 | 64.6789 | 0.01424 | 16.6255 | 159.8927 | 224.2410 | 13.22405 | – |
| 2026 Apr 18 17:56 | 2026 Apr 13 04:05:37 | 64.6789 | 0.01428 | 17.4879 | 161.1977 | 224.2410 | 13.22405 | – |
| 2026 Apr 16 17:57 | 2026 Apr 13 04:05:37 | 64.6789 | 0.01428 | 17.4879 | 161.1977 | 224.2410 | 13.22405 | – |
| 2026 Apr 14 17:57 | 2026 Apr 13 04:05:37 | 64.6789 | 0.01428 | 17.4879 | 161.1977 | 224.2410 | 13.22405 | – |
| 2026 Apr 13 17:57 | 2026 Apr 13 04:05:37 | 64.6789 | 0.01428 | 17.4879 | 161.1977 | 224.2410 | 13.22405 | – |
| 2026 Apr 12 17:57 | 2026 Apr 07 22:43:58 | 64.6785 | 0.01431 | 18.3089 | 162.4572 | 224.2410 | 13.22405 | – |
| 2026 Apr 11 17:57 | 2026 Apr 07 22:43:58 | 64.6785 | 0.01431 | 18.3089 | 162.4572 | 224.2410 | 13.22405 | – |
| 2026 Apr 10 17:58 | 2026 Apr 07 22:43:58 | 64.6785 | 0.01431 | 18.3089 | 162.4572 | 224.2410 | 13.22405 | – |
| 2026 Apr 09 18:01 | 2026 Apr 07 22:43:58 | 64.6785 | 0.01431 | 18.3089 | 162.4572 | 224.2410 | 13.22405 | – |
| 2026 Apr 08 17:57 | 2026 Apr 07 22:43:58 | 64.6785 | 0.01431 | 18.3089 | 162.4572 | 224.2410 | 13.22405 | – |
| 2026 Apr 07 17:57 | 2026 Apr 02 06:43:49 | 64.6788 | 0.01434 | 19.1996 | 163.8414 | 224.2410 | 13.22405 | – |
| 2026 Apr 06 17:57 | 2026 Apr 02 06:43:49 | 64.6788 | 0.01434 | 19.1996 | 163.8414 | 224.2410 | 13.22405 | – |